sensor_id;sensor_type;location;lat;lon;timestamp;P1;durP1;ratioP1;P2;durP2;ratioP2
5543;SDS011;2795;47.652;13.128;2023-05-17T00:00:09;29.47;;;13.23;;
5543;SDS011;2795;47.652;13.128;2023-05-17T00:02:36;25.47;;;12.17;;
5543;SDS011;2795;47.652;13.128;2023-05-17T00:05:03;26.47;;;12.20;;
5543;SDS011;2795;47.652;13.128;2023-05-17T00:07:30;29.13;;;12.60;;
5543;SDS011;2795;47.652;13.128;2023-05-17T00:09:57;26.83;;;12.87;;
5543;SDS011;2795;47.652;13.128;2023-05-17T00:12:24;23.60;;;12.60;;
5543;SDS011;2795;47.652;13.128;2023-05-17T00:14:50;24.00;;;12.30;;
5543;SDS011;2795;47.652;13.128;2023-05-17T00:17:18;22.53;;;11.03;;
5543;SDS011;2795;47.652;13.128;2023-05-17T00:19:45;24.77;;;12.03;;
5543;SDS011;2795;47.652;13.128;2023-05-17T00:22:12;25.30;;;12.20;;
5543;SDS011;2795;47.652;13.128;2023-05-17T00:24:38;26.77;;;11.80;;
5543;SDS011;2795;47.652;13.128;2023-05-17T00:27:05;23.37;;;11.90;;
5543;SDS011;2795;47.652;13.128;2023-05-17T00:29:32;27.50;;;12.20;;
5543;SDS011;2795;47.652;13.128;2023-05-17T00:31:58;21.77;;;11.20;;
5543;SDS011;2795;47.652;13.128;2023-05-17T00:34:25;23.90;;;11.57;;
5543;SDS011;2795;47.652;13.128;2023-05-17T00:36:51;24.60;;;11.60;;
5543;SDS011;2795;47.652;13.128;2023-05-17T00:39:18;26.43;;;12.77;;
5543;SDS011;2795;47.652;13.128;2023-05-17T00:41:45;35.30;;;14.20;;
5543;SDS011;2795;47.652;13.128;2023-05-17T00:44:11;29.20;;;13.10;;
5543;SDS011;2795;47.652;13.128;2023-05-17T00:46:38;32.00;;;15.00;;
5543;SDS011;2795;47.652;13.128;2023-05-17T00:49:05;30.13;;;14.13;;
5543;SDS011;2795;47.652;13.128;2023-05-17T00:51:31;25.00;;;11.97;;
5543;SDS011;2795;47.652;13.128;2023-05-17T00:53:58;25.40;;;11.77;;
5543;SDS011;2795;47.652;13.128;2023-05-17T00:56:25;27.90;;;13.10;;
5543;SDS011;2795;47.652;13.128;2023-05-17T00:58:52;29.50;;;12.80;;
5543;SDS011;2795;47.652;13.128;2023-05-17T01:01:19;20.33;;;12.20;;
5543;SDS011;2795;47.652;13.128;2023-05-17T01:03:46;19.80;;;10.70;;
5543;SDS011;2795;47.652;13.128;2023-05-17T01:06:13;24.30;;;12.20;;
5543;SDS011;2795;47.652;13.128;2023-05-17T01:08:40;25.23;;;12.00;;
5543;SDS011;2795;47.652;13.128;2023-05-17T01:11:10;19.37;;;10.33;;
5543;SDS011;2795;47.652;13.128;2023-05-17T01:16:17;21.93;;;11.10;;
5543;SDS011;2795;47.652;13.128;2023-05-17T01:19:08;24.13;;;9.93;;
5543;SDS011;2795;47.652;13.128;2023-05-17T01:24:49;17.60;;;9.37;;
5543;SDS011;2795;47.652;13.128;2023-05-17T01:27:10;30.97;;;10.13;;
5543;SDS011;2795;47.652;13.128;2023-05-17T01:29:38;21.53;;;9.67;;
5543;SDS011;2795;47.652;13.128;2023-05-17T01:32:05;20.90;;;9.10;;
5543;SDS011;2795;47.652;13.128;2023-05-17T01:34:33;23.53;;;8.83;;
5543;SDS011;2795;47.652;13.128;2023-05-17T01:37:00;16.77;;;8.10;;
5543;SDS011;2795;47.652;13.128;2023-05-17T01:39:27;17.23;;;7.77;;
5543;SDS011;2795;47.652;13.128;2023-05-17T01:41:56;19.30;;;9.70;;
5543;SDS011;2795;47.652;13.128;2023-05-17T01:44:37;23.00;;;8.00;;
5543;SDS011;2795;47.652;13.128;2023-05-17T01:50:21;17.30;;;7.00;;
5543;SDS011;2795;47.652;13.128;2023-05-17T01:52:52;18.13;;;9.57;;
5543;SDS011;2795;47.652;13.128;2023-05-17T01:58:11;21.53;;;7.20;;
5543;SDS011;2795;47.652;13.128;2023-05-17T02:00:38;19.77;;;7.73;;
5543;SDS011;2795;47.652;13.128;2023-05-17T02:03:05;18.60;;;8.00;;
5543;SDS011;2795;47.652;13.128;2023-05-17T02:05:32;18.07;;;7.40;;
5543;SDS011;2795;47.652;13.128;2023-05-17T02:07:59;19.73;;;8.17;;
5543;SDS011;2795;47.652;13.128;2023-05-17T02:10:26;16.77;;;7.70;;
5543;SDS011;2795;47.652;13.128;2023-05-17T02:12:52;16.17;;;7.60;;
5543;SDS011;2795;47.652;13.128;2023-05-17T02:15:19;23.53;;;7.97;;
5543;SDS011;2795;47.652;13.128;2023-05-17T02:17:45;14.57;;;7.47;;
5543;SDS011;2795;47.652;13.128;2023-05-17T02:20:12;12.33;;;6.10;;
5543;SDS011;2795;47.652;13.128;2023-05-17T02:22:39;16.50;;;7.10;;
5543;SDS011;2795;47.652;13.128;2023-05-17T02:25:06;13.93;;;7.50;;
5543;SDS011;2795;47.652;13.128;2023-05-17T02:27:33;25.80;;;7.40;;
5543;SDS011;2795;47.652;13.128;2023-05-17T02:30:00;23.23;;;7.57;;
5543;SDS011;2795;47.652;13.128;2023-05-17T02:32:27;11.93;;;6.00;;
5543;SDS011;2795;47.652;13.128;2023-05-17T02:34:54;13.50;;;6.30;;
5543;SDS011;2795;47.652;13.128;2023-05-17T02:37:21;18.73;;;6.77;;
5543;SDS011;2795;47.652;13.128;2023-05-17T02:39:48;12.87;;;6.07;;
5543;SDS011;2795;47.652;13.128;2023-05-17T02:42:14;17.60;;;6.77;;
5543;SDS011;2795;47.652;13.128;2023-05-17T02:44:41;19.40;;;8.30;;
5543;SDS011;2795;47.652;13.128;2023-05-17T02:47:08;14.30;;;6.47;;
5543;SDS011;2795;47.652;13.128;2023-05-17T02:49:35;18.17;;;8.10;;
5543;SDS011;2795;47.652;13.128;2023-05-17T02:52:01;12.67;;;6.90;;
5543;SDS011;2795;47.652;13.128;2023-05-17T02:54:28;13.10;;;7.80;;
5543;SDS011;2795;47.652;13.128;2023-05-17T02:56:55;20.00;;;8.50;;
5543;SDS011;2795;47.652;13.128;2023-05-17T02:59:22;17.87;;;8.63;;
5543;SDS011;2795;47.652;13.128;2023-05-17T03:01:48;23.30;;;9.13;;
5543;SDS011;2795;47.652;13.128;2023-05-17T03:04:15;21.77;;;10.50;;
5543;SDS011;2795;47.652;13.128;2023-05-17T03:06:42;25.50;;;11.70;;
5543;SDS011;2795;47.652;13.128;2023-05-17T03:09:09;24.13;;;10.13;;
5543;SDS011;2795;47.652;13.128;2023-05-17T03:11:36;28.70;;;11.40;;
5543;SDS011;2795;47.652;13.128;2023-05-17T03:14:03;28.70;;;12.10;;
5543;SDS011;2795;47.652;13.128;2023-05-17T03:16:29;28.37;;;13.57;;
5543;SDS011;2795;47.652;13.128;2023-05-17T03:18:56;25.33;;;12.13;;
5543;SDS011;2795;47.652;13.128;2023-05-17T03:21:23;43.80;;;12.87;;
5543;SDS011;2795;47.652;13.128;2023-05-17T03:23:49;24.30;;;10.60;;
5543;SDS011;2795;47.652;13.128;2023-05-17T03:26:16;25.23;;;11.67;;
5543;SDS011;2795;47.652;13.128;2023-05-17T03:28:44;31.70;;;12.53;;
5543;SDS011;2795;47.652;13.128;2023-05-17T03:31:11;24.27;;;11.50;;
5543;SDS011;2795;47.652;13.128;2023-05-17T03:33:38;25.10;;;11.07;;
5543;SDS011;2795;47.652;13.128;2023-05-17T03:36:05;27.30;;;12.87;;
5543;SDS011;2795;47.652;13.128;2023-05-17T03:38:32;25.40;;;11.33;;
5543;SDS011;2795;47.652;13.128;2023-05-17T03:40:59;24.90;;;11.83;;
5543;SDS011;2795;47.652;13.128;2023-05-17T03:43:26;23.03;;;11.03;;
5543;SDS011;2795;47.652;13.128;2023-05-17T03:45:53;18.23;;;10.03;;
5543;SDS011;2795;47.652;13.128;2023-05-17T03:48:20;18.67;;;9.87;;
5543;SDS011;2795;47.652;13.128;2023-05-17T03:50:47;28.13;;;11.50;;
5543;SDS011;2795;47.652;13.128;2023-05-17T03:53:13;23.37;;;11.00;;
5543;SDS011;2795;47.652;13.128;2023-05-17T03:55:40;26.87;;;12.00;;
5543;SDS011;2795;47.652;13.128;2023-05-17T03:58:07;28.70;;;11.50;;
5543;SDS011;2795;47.652;13.128;2023-05-17T04:00:33;33.90;;;11.87;;
5543;SDS011;2795;47.652;13.128;2023-05-17T04:03:00;28.40;;;11.83;;
5543;SDS011;2795;47.652;13.128;2023-05-17T04:05:27;30.97;;;10.80;;
5543;SDS011;2795;47.652;13.128;2023-05-17T04:07:54;27.67;;;12.90;;
5543;SDS011;2795;47.652;13.128;2023-05-17T04:10:21;27.27;;;10.97;;
5543;SDS011;2795;47.652;13.128;2023-05-17T04:12:48;26.50;;;12.30;;
5543;SDS011;2795;47.652;13.128;2023-05-17T04:15:15;30.70;;;11.60;;
5543;SDS011;2795;47.652;13.128;2023-05-17T04:17:41;39.60;;;13.87;;
5543;SDS011;2795;47.652;13.128;2023-05-17T04:20:08;25.77;;;12.40;;
5543;SDS011;2795;47.652;13.128;2023-05-17T04:22:36;26.80;;;11.60;;
5543;SDS011;2795;47.652;13.128;2023-05-17T04:25:03;25.93;;;10.77;;
5543;SDS011;2795;47.652;13.128;2023-05-17T04:27:30;31.63;;;11.97;;
5543;SDS011;2795;47.652;13.128;2023-05-17T04:29:57;28.07;;;12.00;;
5543;SDS011;2795;47.652;13.128;2023-05-17T04:32:24;23.17;;;11.60;;
5543;SDS011;2795;47.652;13.128;2023-05-17T04:34:51;23.40;;;11.20;;
5543;SDS011;2795;47.652;13.128;2023-05-17T04:37:17;24.33;;;11.67;;
5543;SDS011;2795;47.652;13.128;2023-05-17T04:39:44;25.83;;;10.93;;
5543;SDS011;2795;47.652;13.128;2023-05-17T04:42:11;22.90;;;12.00;;
5543;SDS011;2795;47.652;13.128;2023-05-17T04:44:37;29.57;;;11.67;;
5543;SDS011;2795;47.652;13.128;2023-05-17T04:47:04;25.20;;;10.47;;
5543;SDS011;2795;47.652;13.128;2023-05-17T04:49:31;28.37;;;10.50;;
5543;SDS011;2795;47.652;13.128;2023-05-17T04:51:57;22.97;;;10.40;;
5543;SDS011;2795;47.652;13.128;2023-05-17T04:54:24;19.17;;;9.40;;
5543;SDS011;2795;47.652;13.128;2023-05-17T04:56:51;21.80;;;9.83;;
5543;SDS011;2795;47.652;13.128;2023-05-17T04:59:18;27.97;;;10.33;;
5543;SDS011;2795;47.652;13.128;2023-05-17T05:01:44;22.40;;;10.67;;
5543;SDS011;2795;47.652;13.128;2023-05-17T05:04:11;29.30;;;11.00;;
5543;SDS011;2795;47.652;13.128;2023-05-17T05:06:38;26.90;;;11.00;;
5543;SDS011;2795;47.652;13.128;2023-05-17T05:09:06;24.37;;;10.87;;
5543;SDS011;2795;47.652;13.128;2023-05-17T05:11:32;24.50;;;12.03;;
5543;SDS011;2795;47.652;13.128;2023-05-17T05:13:59;26.60;;;11.10;;
5543;SDS011;2795;47.652;13.128;2023-05-17T05:16:26;28.67;;;10.97;;
5543;SDS011;2795;47.652;13.128;2023-05-17T05:18:52;25.07;;;9.60;;
5543;SDS011;2795;47.652;13.128;2023-05-17T05:21:19;18.90;;;9.20;;
5543;SDS011;2795;47.652;13.128;2023-05-17T05:23:46;31.47;;;11.07;;
5543;SDS011;2795;47.652;13.128;2023-05-17T05:26:13;19.83;;;8.40;;
5543;SDS011;2795;47.652;13.128;2023-05-17T05:28:39;20.67;;;9.80;;
5543;SDS011;2795;47.652;13.128;2023-05-17T05:31:06;27.87;;;8.80;;
5543;SDS011;2795;47.652;13.128;2023-05-17T05:33:33;35.00;;;10.87;;
5543;SDS011;2795;47.652;13.128;2023-05-17T05:36:00;30.83;;;10.17;;
5543;SDS011;2795;47.652;13.128;2023-05-17T05:38:26;21.50;;;9.67;;
5543;SDS011;2795;47.652;13.128;2023-05-17T05:40:53;22.47;;;9.00;;
5543;SDS011;2795;47.652;13.128;2023-05-17T05:43:20;13.67;;;7.60;;
5543;SDS011;2795;47.652;13.128;2023-05-17T05:45:46;24.10;;;8.80;;
5543;SDS011;2795;47.652;13.128;2023-05-17T05:48:13;13.80;;;7.20;;
5543;SDS011;2795;47.652;13.128;2023-05-17T05:50:40;20.73;;;8.60;;
5543;SDS011;2795;47.652;13.128;2023-05-17T05:53:09;17.77;;;8.30;;
5543;SDS011;2795;47.652;13.128;2023-05-17T05:55:44;26.17;;;12.00;;
5543;SDS011;2795;47.652;13.128;2023-05-17T05:58:11;20.10;;;8.97;;
5543;SDS011;2795;47.652;13.128;2023-05-17T06:00:38;27.37;;;9.20;;
5543;SDS011;2795;47.652;13.128;2023-05-17T06:03:04;19.17;;;9.30;;
5543;SDS011;2795;47.652;13.128;2023-05-17T06:05:31;21.70;;;8.77;;
5543;SDS011;2795;47.652;13.128;2023-05-17T06:07:58;21.63;;;8.40;;
5543;SDS011;2795;47.652;13.128;2023-05-17T06:10:25;24.83;;;10.47;;
5543;SDS011;2795;47.652;13.128;2023-05-17T06:12:52;19.77;;;8.10;;
5543;SDS011;2795;47.652;13.128;2023-05-17T06:15:19;30.10;;;10.00;;
5543;SDS011;2795;47.652;13.128;2023-05-17T06:17:46;18.80;;;8.33;;
5543;SDS011;2795;47.652;13.128;2023-05-17T06:20:12;27.60;;;10.27;;
5543;SDS011;2795;47.652;13.128;2023-05-17T06:22:40;25.97;;;9.23;;
5543;SDS011;2795;47.652;13.128;2023-05-17T06:25:08;28.93;;;9.90;;
5543;SDS011;2795;47.652;13.128;2023-05-17T06:27:36;19.60;;;8.27;;
5543;SDS011;2795;47.652;13.128;2023-05-17T06:30:03;25.30;;;7.93;;
5543;SDS011;2795;47.652;13.128;2023-05-17T06:32:32;12.77;;;6.73;;
5543;SDS011;2795;47.652;13.128;2023-05-17T06:34:59;20.40;;;7.40;;
5543;SDS011;2795;47.652;13.128;2023-05-17T06:37:26;22.77;;;8.73;;
5543;SDS011;2795;47.652;13.128;2023-05-17T06:39:56;16.10;;;8.40;;
5543;SDS011;2795;47.652;13.128;2023-05-17T06:42:40;23.27;;;7.70;;
5543;SDS011;2795;47.652;13.128;2023-05-17T06:45:07;20.40;;;8.70;;
5543;SDS011;2795;47.652;13.128;2023-05-17T06:47:34;20.90;;;8.90;;
5543;SDS011;2795;47.652;13.128;2023-05-17T06:50:01;18.40;;;8.30;;
5543;SDS011;2795;47.652;13.128;2023-05-17T06:52:27;15.70;;;7.73;;
5543;SDS011;2795;47.652;13.128;2023-05-17T06:54:54;20.00;;;7.47;;
5543;SDS011;2795;47.652;13.128;2023-05-17T06:57:21;22.53;;;7.80;;
5543;SDS011;2795;47.652;13.128;2023-05-17T06:59:48;19.40;;;7.50;;
5543;SDS011;2795;47.652;13.128;2023-05-17T07:02:15;14.93;;;7.40;;
5543;SDS011;2795;47.652;13.128;2023-05-17T07:04:42;22.70;;;9.27;;
5543;SDS011;2795;47.652;13.128;2023-05-17T07:07:09;22.73;;;8.63;;
5543;SDS011;2795;47.652;13.128;2023-05-17T07:09:36;17.53;;;7.33;;
5543;SDS011;2795;47.652;13.128;2023-05-17T07:12:03;28.57;;;7.87;;
5543;SDS011;2795;47.652;13.128;2023-05-17T07:14:31;18.73;;;8.33;;
5543;SDS011;2795;47.652;13.128;2023-05-17T07:16:58;17.87;;;8.40;;
5543;SDS011;2795;47.652;13.128;2023-05-17T07:19:25;18.17;;;7.80;;
5543;SDS011;2795;47.652;13.128;2023-05-17T07:21:53;19.20;;;8.10;;
5543;SDS011;2795;47.652;13.128;2023-05-17T07:24:19;14.60;;;7.50;;
5543;SDS011;2795;47.652;13.128;2023-05-17T07:26:46;17.17;;;7.97;;
5543;SDS011;2795;47.652;13.128;2023-05-17T07:29:15;17.83;;;7.90;;
5543;SDS011;2795;47.652;13.128;2023-05-17T07:31:42;23.43;;;9.10;;
5543;SDS011;2795;47.652;13.128;2023-05-17T07:34:09;23.53;;;10.57;;
5543;SDS011;2795;47.652;13.128;2023-05-17T07:36:36;17.97;;;7.50;;
5543;SDS011;2795;47.652;13.128;2023-05-17T07:39:03;19.67;;;8.70;;
5543;SDS011;2795;47.652;13.128;2023-05-17T07:41:30;28.40;;;9.80;;
5543;SDS011;2795;47.652;13.128;2023-05-17T07:43:59;20.33;;;8.13;;
5543;SDS011;2795;47.652;13.128;2023-05-17T07:46:25;30.47;;;13.70;;
5543;SDS011;2795;47.652;13.128;2023-05-17T07:48:52;37.10;;;13.00;;
5543;SDS011;2795;47.652;13.128;2023-05-17T07:51:23;40.27;;;17.70;;
5543;SDS011;2795;47.652;13.128;2023-05-17T07:53:50;34.43;;;11.73;;
5543;SDS011;2795;47.652;13.128;2023-05-17T07:56:16;22.90;;;7.60;;
5543;SDS011;2795;47.652;13.128;2023-05-17T07:58:43;25.63;;;7.60;;
5543;SDS011;2795;47.652;13.128;2023-05-17T08:01:10;24.80;;;8.20;;
5543;SDS011;2795;47.652;13.128;2023-05-17T08:03:36;22.57;;;6.90;;
5543;SDS011;2795;47.652;13.128;2023-05-17T08:06:04;19.53;;;7.03;;
5543;SDS011;2795;47.652;13.128;2023-05-17T08:08:30;19.30;;;7.20;;
5543;SDS011;2795;47.652;13.128;2023-05-17T08:10:57;13.50;;;6.20;;
5543;SDS011;2795;47.652;13.128;2023-05-17T08:13:24;12.13;;;6.20;;
5543;SDS011;2795;47.652;13.128;2023-05-17T08:15:50;17.93;;;6.50;;
5543;SDS011;2795;47.652;13.128;2023-05-17T08:18:26;15.67;;;6.50;;
5543;SDS011;2795;47.652;13.128;2023-05-17T08:20:53;13.93;;;6.33;;
5543;SDS011;2795;47.652;13.128;2023-05-17T08:23:20;19.07;;;6.27;;
5543;SDS011;2795;47.652;13.128;2023-05-17T08:25:46;17.23;;;6.13;;
5543;SDS011;2795;47.652;13.128;2023-05-17T08:28:13;20.23;;;6.60;;
5543;SDS011;2795;47.652;13.128;2023-05-17T08:30:40;17.03;;;5.80;;
5543;SDS011;2795;47.652;13.128;2023-05-17T08:33:10;13.77;;;6.60;;
5543;SDS011;2795;47.652;13.128;2023-05-17T08:35:37;16.43;;;5.87;;
5543;SDS011;2795;47.652;13.128;2023-05-17T08:38:04;11.60;;;4.93;;
5543;SDS011;2795;47.652;13.128;2023-05-17T08:40:30;23.80;;;6.90;;
5543;SDS011;2795;47.652;13.128;2023-05-17T08:42:57;19.47;;;6.63;;
5543;SDS011;2795;47.652;13.128;2023-05-17T08:45:25;15.87;;;4.90;;
5543;SDS011;2795;47.652;13.128;2023-05-17T08:47:53;19.93;;;7.20;;
5543;SDS011;2795;47.652;13.128;2023-05-17T08:50:20;21.00;;;6.23;;
5543;SDS011;2795;47.652;13.128;2023-05-17T08:52:47;21.20;;;6.33;;
5543;SDS011;2795;47.652;13.128;2023-05-17T08:55:14;19.70;;;7.63;;
5543;SDS011;2795;47.652;13.128;2023-05-17T08:57:41;22.97;;;6.87;;
5543;SDS011;2795;47.652;13.128;2023-05-17T09:00:09;20.37;;;6.07;;
5543;SDS011;2795;47.652;13.128;2023-05-17T09:02:40;17.03;;;6.07;;
5543;SDS011;2795;47.652;13.128;2023-05-17T09:05:08;12.50;;;5.50;;
5543;SDS011;2795;47.652;13.128;2023-05-17T09:07:36;23.13;;;6.00;;
5543;SDS011;2795;47.652;13.128;2023-05-17T09:10:03;18.00;;;5.50;;
5543;SDS011;2795;47.652;13.128;2023-05-17T09:12:31;14.50;;;6.00;;
5543;SDS011;2795;47.652;13.128;2023-05-17T09:15:17;11.57;;;5.80;;
5543;SDS011;2795;47.652;13.128;2023-05-17T09:17:52;15.93;;;5.43;;
5543;SDS011;2795;47.652;13.128;2023-05-17T09:20:22;14.00;;;5.80;;
5543;SDS011;2795;47.652;13.128;2023-05-17T09:22:50;19.47;;;7.40;;
5543;SDS011;2795;47.652;13.128;2023-05-17T09:25:22;12.20;;;6.43;;
5543;SDS011;2795;47.652;13.128;2023-05-17T09:27:52;13.17;;;5.57;;
5543;SDS011;2795;47.652;13.128;2023-05-17T09:30:25;116.97;;;49.70;;
5543;SDS011;2795;47.652;13.128;2023-05-17T09:32:53;106.27;;;40.33;;
5543;SDS011;2795;47.652;13.128;2023-05-17T09:35:27;19.40;;;6.10;;
5543;SDS011;2795;47.652;13.128;2023-05-17T09:37:56;20.30;;;7.80;;
5543;SDS011;2795;47.652;13.128;2023-05-17T09:40:37;15.03;;;5.97;;
5543;SDS011;2795;47.652;13.128;2023-05-17T09:43:05;17.13;;;5.50;;
5543;SDS011;2795;47.652;13.128;2023-05-17T09:45:32;18.40;;;5.73;;
5543;SDS011;2795;47.652;13.128;2023-05-17T09:50:59;24.67;;;6.33;;
5543;SDS011;2795;47.652;13.128;2023-05-17T09:53:29;13.43;;;5.60;;
5543;SDS011;2795;47.652;13.128;2023-05-17T09:55:58;16.93;;;6.03;;
5543;SDS011;2795;47.652;13.128;2023-05-17T09:58:26;15.30;;;5.83;;
5543;SDS011;2795;47.652;13.128;2023-05-17T10:01:00;18.53;;;5.67;;
5543;SDS011;2795;47.652;13.128;2023-05-17T10:03:29;19.83;;;5.30;;
5543;SDS011;2795;47.652;13.128;2023-05-17T10:06:01;17.67;;;6.37;;
5543;SDS011;2795;47.652;13.128;2023-05-17T10:08:39;17.97;;;6.20;;
5543;SDS011;2795;47.652;13.128;2023-05-17T10:11:09;18.63;;;8.57;;
5543;SDS011;2795;47.652;13.128;2023-05-17T10:13:41;16.30;;;6.40;;
5543;SDS011;2795;47.652;13.128;2023-05-17T10:16:10;12.93;;;5.10;;
5543;SDS011;2795;47.652;13.128;2023-05-17T10:18:37;16.90;;;5.47;;
5543;SDS011;2795;47.652;13.128;2023-05-17T10:21:06;16.43;;;5.87;;
5543;SDS011;2795;47.652;13.128;2023-05-17T10:23:33;23.17;;;6.17;;
5543;SDS011;2795;47.652;13.128;2023-05-17T10:26:01;15.90;;;5.67;;
5543;SDS011;2795;47.652;13.128;2023-05-17T10:28:27;12.70;;;5.30;;
5543;SDS011;2795;47.652;13.128;2023-05-17T10:30:56;19.10;;;5.53;;
5543;SDS011;2795;47.652;13.128;2023-05-17T10:33:23;12.70;;;5.13;;
5543;SDS011;2795;47.652;13.128;2023-05-17T10:35:50;13.37;;;4.83;;
5543;SDS011;2795;47.652;13.128;2023-05-17T10:38:17;25.63;;;6.10;;
5543;SDS011;2795;47.652;13.128;2023-05-17T10:40:47;14.60;;;5.37;;
5543;SDS011;2795;47.652;13.128;2023-05-17T10:43:14;21.20;;;6.17;;
5543;SDS011;2795;47.652;13.128;2023-05-17T10:45:41;23.37;;;6.60;;
5543;SDS011;2795;47.652;13.128;2023-05-17T10:48:08;12.40;;;5.60;;
5543;SDS011;2795;47.652;13.128;2023-05-17T10:50:38;13.13;;;5.73;;
5543;SDS011;2795;47.652;13.128;2023-05-17T10:53:19;15.83;;;6.90;;
5543;SDS011;2795;47.652;13.128;2023-05-17T10:55:45;30.10;;;6.80;;
5543;SDS011;2795;47.652;13.128;2023-05-17T10:58:14;12.60;;;5.50;;
5543;SDS011;2795;47.652;13.128;2023-05-17T11:00:45;12.77;;;5.90;;
5543;SDS011;2795;47.652;13.128;2023-05-17T11:03:17;16.67;;;6.33;;
5543;SDS011;2795;47.652;13.128;2023-05-17T11:11:35;18.00;;;6.93;;
5543;SDS011;2795;47.652;13.128;2023-05-17T11:14:02;18.60;;;6.50;;
5543;SDS011;2795;47.652;13.128;2023-05-17T11:16:33;15.87;;;6.10;;
5543;SDS011;2795;47.652;13.128;2023-05-17T11:19:08;15.43;;;6.17;;
5543;SDS011;2795;47.652;13.128;2023-05-17T11:21:45;12.87;;;5.63;;
5543;SDS011;2795;47.652;13.128;2023-05-17T11:24:15;14.90;;;5.43;;
5543;SDS011;2795;47.652;13.128;2023-05-17T11:26:43;16.70;;;6.33;;
5543;SDS011;2795;47.652;13.128;2023-05-17T11:29:11;16.60;;;6.43;;
5543;SDS011;2795;47.652;13.128;2023-05-17T11:31:44;16.40;;;5.70;;
5543;SDS011;2795;47.652;13.128;2023-05-17T11:34:11;22.83;;;7.43;;
5543;SDS011;2795;47.652;13.128;2023-05-17T11:36:51;14.70;;;7.03;;
5543;SDS011;2795;47.652;13.128;2023-05-17T11:39:19;20.50;;;6.50;;
5543;SDS011;2795;47.652;13.128;2023-05-17T11:41:48;19.97;;;6.30;;
5543;SDS011;2795;47.652;13.128;2023-05-17T11:44:23;14.33;;;6.27;;
5543;SDS011;2795;47.652;13.128;2023-05-17T11:46:51;17.60;;;8.40;;
5543;SDS011;2795;47.652;13.128;2023-05-17T11:49:25;15.00;;;6.33;;
5543;SDS011;2795;47.652;13.128;2023-05-17T11:51:59;13.07;;;6.50;;
5543;SDS011;2795;47.652;13.128;2023-05-17T11:54:25;22.10;;;7.67;;
5543;SDS011;2795;47.652;13.128;2023-05-17T11:56:52;15.87;;;6.70;;
5543;SDS011;2795;47.652;13.128;2023-05-17T11:59:19;24.60;;;7.10;;
5543;SDS011;2795;47.652;13.128;2023-05-17T12:01:47;22.23;;;6.43;;
5543;SDS011;2795;47.652;13.128;2023-05-17T12:04:23;33.27;;;8.03;;
5543;SDS011;2795;47.652;13.128;2023-05-17T12:06:54;24.40;;;8.10;;
5543;SDS011;2795;47.652;13.128;2023-05-17T12:09:21;16.40;;;6.97;;
5543;SDS011;2795;47.652;13.128;2023-05-17T12:11:48;31.10;;;8.57;;
5543;SDS011;2795;47.652;13.128;2023-05-17T12:14:15;16.50;;;6.93;;
5543;SDS011;2795;47.652;13.128;2023-05-17T12:16:43;20.63;;;7.87;;
5543;SDS011;2795;47.652;13.128;2023-05-17T12:19:20;25.70;;;6.87;;
5543;SDS011;2795;47.652;13.128;2023-05-17T12:21:48;17.47;;;7.57;;
5543;SDS011;2795;47.652;13.128;2023-05-17T12:24:16;22.50;;;6.37;;
5543;SDS011;2795;47.652;13.128;2023-05-17T12:26:43;14.47;;;6.53;;
5543;SDS011;2795;47.652;13.128;2023-05-17T12:29:11;16.97;;;6.60;;
5543;SDS011;2795;47.652;13.128;2023-05-17T12:31:44;12.17;;;6.20;;
5543;SDS011;2795;47.652;13.128;2023-05-17T12:34:15;17.00;;;7.50;;
5543;SDS011;2795;47.652;13.128;2023-05-17T12:36:43;16.10;;;6.37;;
5543;SDS011;2795;47.652;13.128;2023-05-17T12:39:10;19.47;;;6.27;;
5543;SDS011;2795;47.652;13.128;2023-05-17T12:41:39;23.30;;;7.07;;
5543;SDS011;2795;47.652;13.128;2023-05-17T12:44:06;14.97;;;6.43;;
5543;SDS011;2795;47.652;13.128;2023-05-17T12:46:41;14.40;;;6.20;;
5543;SDS011;2795;47.652;13.128;2023-05-17T12:49:08;22.83;;;6.30;;
5543;SDS011;2795;47.652;13.128;2023-05-17T12:51:48;15.90;;;6.47;;
5543;SDS011;2795;47.652;13.128;2023-05-17T12:54:27;15.47;;;6.50;;
5543;SDS011;2795;47.652;13.128;2023-05-17T12:56:54;14.00;;;5.80;;
5543;SDS011;2795;47.652;13.128;2023-05-17T12:59:21;12.37;;;5.60;;
5543;SDS011;2795;47.652;13.128;2023-05-17T13:01:51;11.30;;;5.77;;
5543;SDS011;2795;47.652;13.128;2023-05-17T13:04:28;11.03;;;5.77;;
5543;SDS011;2795;47.652;13.128;2023-05-17T13:07:01;13.30;;;6.37;;
5543;SDS011;2795;47.652;13.128;2023-05-17T13:09:29;19.40;;;7.10;;
5543;SDS011;2795;47.652;13.128;2023-05-17T13:11:58;17.40;;;6.50;;
5543;SDS011;2795;47.652;13.128;2023-05-17T13:14:34;12.97;;;6.60;;
5543;SDS011;2795;47.652;13.128;2023-05-17T13:17:25;20.03;;;6.50;;
5543;SDS011;2795;47.652;13.128;2023-05-17T13:20:00;17.03;;;7.13;;
5543;SDS011;2795;47.652;13.128;2023-05-17T13:22:33;15.03;;;7.30;;
5543;SDS011;2795;47.652;13.128;2023-05-17T13:24:59;16.67;;;7.40;;
5543;SDS011;2795;47.652;13.128;2023-05-17T13:27:30;9.77;;;6.33;;
5543;SDS011;2795;47.652;13.128;2023-05-17T13:29:57;13.83;;;6.73;;
5543;SDS011;2795;47.652;13.128;2023-05-17T13:32:24;17.70;;;7.30;;
5543;SDS011;2795;47.652;13.128;2023-05-17T13:34:51;13.00;;;6.90;;
5543;SDS011;2795;47.652;13.128;2023-05-17T13:37:18;16.20;;;7.97;;
5543;SDS011;2795;47.652;13.128;2023-05-17T13:39:46;16.73;;;7.17;;
5543;SDS011;2795;47.652;13.128;2023-05-17T13:42:13;14.93;;;7.03;;
5543;SDS011;2795;47.652;13.128;2023-05-17T13:44:39;20.20;;;7.53;;
5543;SDS011;2795;47.652;13.128;2023-05-17T13:47:09;18.30;;;7.77;;
5543;SDS011;2795;47.652;13.128;2023-05-17T13:49:36;17.73;;;7.10;;
5543;SDS011;2795;47.652;13.128;2023-05-17T13:52:03;14.73;;;7.63;;
5543;SDS011;2795;47.652;13.128;2023-05-17T13:54:34;23.17;;;8.20;;
5543;SDS011;2795;47.652;13.128;2023-05-17T13:57:04;14.97;;;7.10;;
5543;SDS011;2795;47.652;13.128;2023-05-17T13:59:31;12.60;;;7.20;;
5543;SDS011;2795;47.652;13.128;2023-05-17T14:01:57;18.03;;;7.43;;
5543;SDS011;2795;47.652;13.128;2023-05-17T14:04:24;17.17;;;6.50;;
5543;SDS011;2795;47.652;13.128;2023-05-17T14:06:51;15.33;;;7.07;;
5543;SDS011;2795;47.652;13.128;2023-05-17T14:09:21;11.13;;;6.27;;
5543;SDS011;2795;47.652;13.128;2023-05-17T14:11:48;14.53;;;6.10;;
5543;SDS011;2795;47.652;13.128;2023-05-17T14:14:15;15.73;;;6.90;;
5543;SDS011;2795;47.652;13.128;2023-05-17T14:16:41;11.07;;;6.20;;
5543;SDS011;2795;47.652;13.128;2023-05-17T14:19:08;15.10;;;6.13;;
5543;SDS011;2795;47.652;13.128;2023-05-17T14:21:35;14.63;;;7.17;;
5543;SDS011;2795;47.652;13.128;2023-05-17T14:24:04;11.20;;;5.80;;
5543;SDS011;2795;47.652;13.128;2023-05-17T14:26:31;21.63;;;6.23;;
5543;SDS011;2795;47.652;13.128;2023-05-17T14:28:58;13.57;;;5.77;;
5543;SDS011;2795;47.652;13.128;2023-05-17T14:31:25;10.20;;;5.17;;
5543;SDS011;2795;47.652;13.128;2023-05-17T14:33:58;11.30;;;5.00;;
5543;SDS011;2795;47.652;13.128;2023-05-17T14:36:26;10.10;;;5.37;;
5543;SDS011;2795;47.652;13.128;2023-05-17T14:38:53;13.00;;;5.57;;
5543;SDS011;2795;47.652;13.128;2023-05-17T14:41:20;16.80;;;6.00;;
5543;SDS011;2795;47.652;13.128;2023-05-17T14:43:47;14.93;;;5.80;;
5543;SDS011;2795;47.652;13.128;2023-05-17T14:46:14;17.70;;;6.13;;
5543;SDS011;2795;47.652;13.128;2023-05-17T14:48:41;14.93;;;5.40;;
5543;SDS011;2795;47.652;13.128;2023-05-17T14:51:08;15.10;;;5.97;;
5543;SDS011;2795;47.652;13.128;2023-05-17T14:53:34;18.80;;;6.20;;
5543;SDS011;2795;47.652;13.128;2023-05-17T14:56:01;18.40;;;7.30;;
5543;SDS011;2795;47.652;13.128;2023-05-17T14:58:28;27.83;;;10.53;;
5543;SDS011;2795;47.652;13.128;2023-05-17T15:00:55;13.70;;;5.27;;
5543;SDS011;2795;47.652;13.128;2023-05-17T15:03:31;11.53;;;5.10;;
5543;SDS011;2795;47.652;13.128;2023-05-17T15:05:59;10.90;;;5.30;;
5543;SDS011;2795;47.652;13.128;2023-05-17T15:08:27;10.17;;;4.90;;